ADDS TAF Board (Experimental) INFO Settings
IDs: Format: Expanded Condensed

KTPA - Tampa Intl Arpt, FL, US

Issued at 0529 UTC 04 Jul 2015
Updated at: 0827 UTC 04 Jul 2015
Time0753Z 04/09Z 04/10Z 04/11Z 04/12Z 04/13Z 04/14Z 04/15Z 04/16Z 04/17Z 04/18Z 04/19Z 04/20Z 04/21Z
Type OBS PRVL PRVL PRVL PRVL PRVL PRVL PRVL PRVL PRVL PRVL PRVL PRVL PRVL
VIS 10 >6 >6 >6 >6 >6 >6 >6 >6 >6 >6 >6 >6 >6
CIG 220 250 250 250 250 250 -- -- -- -- 250 250 250 250
Cover BKN BKN BKN BKN BKN BKN SCT SCT SCT SCT BKN BKN BKN BKN
FltCat VFR VFR VFR VFR VFR VFR VFR VFR VFR VFR VFR VFR VFR VFR
WX -- -- -- -- -- -- -- -- -- -- VCTS VCTS VCTS VCTS
WDir VRB VRB VRB VRB VRB VRB 160 160 160 160 240 240 240 290
WSpd 0 3 3 3 3 3 5 5 5 5 5 5 5 7
WGst -- -- -- -- -- -- -- -- -- -- -- -- -- --
R01/19
XWnd VRB VRB VRB VRB VRB VRB -2 -2 -2 -2 4 4 4 7
HWnd VRB VRB VRB VRB VRB VRB -5 -5 -5 -5 -3 -3 -3 2
R10/28
XWnd VRB VRB VRB VRB VRB VRB -5 -5 -5 -5 -3 -3 -3 2
HWnd VRB VRB VRB VRB VRB VRB 2 2 2 2 -4 -4 -4 -7

NOTE: TEMPO conditions in [brackets]. Keep in mind TEMPO conditions might be better (lower impact) than prevailing conditions.

Raw TAF
KTPA 040529Z 0406/0506 VRB03KT P6SM FEW045 BKN250
  FM041400 16005KT P6SM FEW025 SCT250
  FM041800 24005KT P6SM VCTS SCT035CB BKN250
  FM042100 29007KT P6SM VCTS SCT045CB BKN250
  FM050000 VRB05KT P6SM SCT045 BKN250
  FM050300 09002KT P6SM SCT045 BKN250


Raw METAR
KTPA 040753Z 00000KT 10SM BKN220 26/21 A3008 RMK AO2 SLP185 T02610211
KTPA 040653Z COR 15003KT 10SM BKN220 26/21 A3009 RMK AO2 SLP188 T02560206
KTPA 040553Z 15003KT 10SM BKN220 26/21 A3010 RMK AO2 SLP192 T02610211 10306 20256 58007

METAR Board
Radar Display
Forecast Discussion

TAF Board Legend

Potential Impact
Threat None Slight Moderate High
Visibility (sm) ≥5.1 5.1>X≥3 3>X≥1 <1
Ceiling (100 ft) ≥30.1 30.1>X≥10 10>X≥5 <5
Wind Speed (kt) <10 10≤X<20 20≤X<30 ≥30
Wind Gust (kt) <15 15≤X<25 25≤X<35 ≥35
Weather No Wx Reported VCTS,-TS,-FZRA,SN TS,FZRA +TS,+FZRA,+SN